Time;durP1;ratioP1;P1;durP2;ratioP2;P2;SDS_P1;SDS_P2;PMS_P1;PMS_P2;Temp;Humidity;BMP_temperature;BMP_pressure;BME280_temperature;BME280_humidity;BME280_pressure;Samples;Min_cycle;Max_cycle;Signal;HPM_P1;HPM_P2
2023/01/27 00:00:50;;;;;;;8.57;5.85;;;;;;;;;;5076352;28;20610;-83
2023/01/27 00:03:18;;;;;;;8.32;6.10;;;;;;;;;;5077406;28;20288;-84
2023/01/27 00:05:47;;;;;;;6.40;5.32;;;;;;;;;;5076920;28;20228;-85
2023/01/27 00:08:16;;;;;;;7.32;6.40;;;;;;;;;;5077858;28;20650;-85
2023/01/27 00:10:43;;;;;;;6.72;5.60;;;;;;;;;;5077509;28;20629;-85
2023/01/27 00:16:01;;;;;;;7.55;5.65;;;;;;;;;;5072707;28;20193;-86
2023/01/27 00:18:29;;;;;;;8.10;6.25;;;;;;;;;;5075227;28;20221;-86
2023/01/27 00:26:28;;;;;;;6.55;5.03;;;;;;;;;;5076750;28;20216;-85
2023/01/27 00:28:55;;;;;;;6.13;5.07;;;;;;;;;;5076147;28;20216;-84
2023/01/27 00:34:10;;;;;;;7.05;5.70;;;;;;;;;;5076166;28;20250;-84
2023/01/27 00:36:41;;;;;;;5.47;4.70;;;;;;;;;;5077266;28;20189;-85
2023/01/27 00:39:11;;;;;;;8.57;5.57;;;;;;;;;;5076135;28;20221;-84
2023/01/27 00:41:40;;;;;;;5.97;5.38;;;;;;;;;;5076330;28;20276;-85
2023/01/27 00:44:11;;;;;;;6.97;6.00;;;;;;;;;;5076663;28;20666;-84
2023/01/27 00:46:39;;;;;;;7.15;6.50;;;;;;;;;;5076438;28;20243;-84
2023/01/27 00:49:07;;;;;;;6.63;5.80;;;;;;;;;;5076592;28;20578;-83
2023/01/27 00:51:35;;;;;;;6.50;5.65;;;;;;;;;;5076441;28;20193;-86
2023/01/27 00:54:04;;;;;;;7.45;6.68;;;;;;;;;;5076611;28;20217;-86
2023/01/27 00:56:32;;;;;;;10.82;6.18;;;;;;;;;;5076137;28;20568;-85
2023/01/27 00:58:59;;;;;;;5.68;5.18;;;;;;;;;;5075943;28;20256;-85
2023/01/27 01:01:27;;;;;;;6.13;5.35;;;;;;;;;;5075458;28;20241;-84
2023/01/27 01:03:57;;;;;;;6.47;5.07;;;;;;;;;;5076038;28;20717;-85
2023/01/27 01:06:24;;;;;;;6.25;5.43;;;;;;;;;;5075716;28;20204;-85
2023/01/27 01:08:52;;;;;;;6.45;5.20;;;;;;;;;;5075719;28;20288;-85
2023/01/27 01:11:22;;;;;;;5.70;5.13;;;;;;;;;;5075896;28;20232;-86
2023/01/27 01:13:49;;;;;;;7.47;5.95;;;;;;;;;;5075182;28;20264;-84
2023/01/27 01:16:20;;;;;;;6.07;5.57;;;;;;;;;;5076074;28;20296;-85
2023/01/27 01:18:48;;;;;;;8.23;6.45;;;;;;;;;;5076167;28;20272;-84
2023/01/27 01:21:16;;;;;;;6.28;5.30;;;;;;;;;;5075108;28;20217;-84
2023/01/27 01:23:45;;;;;;;8.38;6.28;;;;;;;;;;5075937;28;20291;-85
2023/01/27 01:26:15;;;;;;;5.68;5.18;;;;;;;;;;5075114;28;20288;-85
2023/01/27 01:28:44;;;;;;;6.28;5.63;;;;;;;;;;5075242;28;20732;-85
2023/01/27 01:31:14;;;;;;;6.95;5.47;;;;;;;;;;5075055;28;20567;-83
2023/01/27 01:33:41;;;;;;;7.40;5.72;;;;;;;;;;5075848;28;20209;-86
2023/01/27 01:36:11;;;;;;;4.55;4.10;;;;;;;;;;5076380;28;20260;-85
2023/01/27 01:38:39;;;;;;;5.07;4.55;;;;;;;;;;5076173;28;20203;-84
2023/01/27 01:41:08;;;;;;;5.10;4.63;;;;;;;;;;5075891;28;20247;-83
2023/01/27 01:43:35;;;;;;;4.68;4.07;;;;;;;;;;5075689;28;20292;-85
2023/01/27 01:46:06;;;;;;;6.00;5.47;;;;;;;;;;5076046;28;20235;-84
2023/01/27 01:48:36;;;;;;;5.35;4.45;;;;;;;;;;5076104;28;20185;-84
2023/01/27 01:51:09;;;;;;;5.10;4.57;;;;;;;;;;5076289;28;20725;-85
2023/01/27 01:53:41;;;;;;;5.80;4.70;;;;;;;;;;5075391;28;20321;-85
2023/01/27 01:56:13;;;;;;;5.72;4.68;;;;;;;;;;5075969;28;20189;-84
2023/01/27 01:58:42;;;;;;;4.53;4.13;;;;;;;;;;5087345;28;20231;-84
2023/01/27 02:01:12;;;;;;;4.85;4.38;;;;;;;;;;5096927;28;20212;-85
2023/01/27 02:03:43;;;;;;;4.65;3.90;;;;;;;;;;5097662;28;20203;-86
2023/01/27 02:06:12;;;;;;;5.85;3.88;;;;;;;;;;5097529;28;20260;-86
2023/01/27 02:08:41;;;;;;;3.72;3.42;;;;;;;;;;5097489;28;20200;-85
2023/01/27 02:11:09;;;;;;;5.10;4.70;;;;;;;;;;5096665;28;20251;-83
2023/01/27 02:13:37;;;;;;;4.43;3.97;;;;;;;;;;5095939;28;20193;-85
2023/01/27 02:16:06;;;;;;;5.32;4.65;;;;;;;;;;5096499;28;20243;-87
2023/01/27 02:18:35;;;;;;;4.78;4.22;;;;;;;;;;5095262;28;20283;-85
2023/01/27 02:21:02;;;;;;;4.80;4.30;;;;;;;;;;5095078;28;20224;-86
2023/01/27 02:23:53;;;;;;;6.40;4.55;;;;;;;;;;5095530;28;20260;-86
2023/01/27 02:26:25;;;;;;;4.97;4.47;;;;;;;;;;5096052;28;20227;-86
2023/01/27 02:28:56;;;;;;;5.05;4.55;;;;;;;;;;5095351;28;20220;-86
2023/01/27 02:31:24;;;;;;;5.13;4.72;;;;;;;;;;5095236;28;20184;-84
2023/01/27 02:33:55;;;;;;;5.13;4.63;;;;;;;;;;5095418;28;20291;-84
2023/01/27 02:36:22;;;;;;;6.85;6.10;;;;;;;;;;5095198;28;20276;-86
2023/01/27 02:38:52;;;;;;;4.82;4.43;;;;;;;;;;5087998;28;20259;-86
2023/01/27 02:41:25;;;;;;;5.68;4.57;;;;;;;;;;5074207;28;20244;-85
2023/01/27 02:43:53;;;;;;;4.78;4.30;;;;;;;;;;5077621;28;20312;-86
2023/01/27 02:46:21;;;;;;;4.88;4.28;;;;;;;;;;5077967;28;20296;-85
2023/01/27 02:48:48;;;;;;;4.95;4.45;;;;;;;;;;5077989;28;20308;-85
2023/01/27 02:51:16;;;;;;;5.70;5.13;;;;;;;;;;5077733;28;20239;-86
2023/01/27 02:53:44;;;;;;;4.20;3.88;;;;;;;;;;5078023;28;20749;-85
2023/01/27 02:56:11;;;;;;;7.60;5.05;;;;;;;;;;5079009;28;20300;-84
2023/01/27 02:58:40;;;;;;;7.75;6.00;;;;;;;;;;5078422;28;20288;-83
2023/01/27 03:01:08;;;;;;;5.45;4.95;;;;;;;;;;5078903;28;20315;-84
2023/01/27 03:03:45;;;;;;;7.05;5.60;;;;;;;;;;5077765;28;20292;-85
2023/01/27 03:06:13;;;;;;;7.60;6.88;;;;;;;;;;5078656;28;20238;-84
2023/01/27 03:08:41;;;;;;;5.85;5.20;;;;;;;;;;5078025;28;20193;-84
2023/01/27 03:11:10;;;;;;;6.13;5.53;;;;;;;;;;5077352;28;20685;-84
2023/01/27 03:13:39;;;;;;;6.40;5.25;;;;;;;;;;5077858;28;20236;-85
2023/01/27 03:18:55;;;;;;;6.03;5.32;;;;;;;;;;5077780;28;20189;-85
2023/01/27 03:21:22;;;;;;;4.85;4.40;;;;;;;;;;5077267;28;20243;-84
2023/01/27 03:23:50;;;;;;;5.63;4.88;;;;;;;;;;5078034;28;20312;-86
2023/01/27 03:26:17;;;;;;;6.20;5.10;;;;;;;;;;5078040;28;20315;-85
2023/01/27 03:29:53;;;;;;;6.40;5.45;;;;;;;;;;5077409;28;20236;-84
2023/01/27 03:31:34;;;;;;;5.80;5.20;;;;;;;;;;5077619;28;20204;-84
2023/01/27 03:34:01;;;;;;;5.38;4.60;;;;;;;;;;5078051;28;20237;-84
2023/01/27 03:47:30;;;;;;;7.20;5.32;;;;;;;;;;5077611;28;20192;-86
2023/01/27 03:49:58;;;;;;;5.53;4.85;;;;;;;;;;5076178;28;20564;-87
2023/01/27 03:52:25;;;;;;;4.18;3.80;;;;;;;;;;5076124;28;20284;-86
2023/01/27 03:54:53;;;;;;;4.47;4.07;;;;;;;;;;5075846;28;20224;-86
2023/01/27 03:57:20;;;;;;;7.78;4.82;;;;;;;;;;5076431;28;20288;-86
2023/01/27 03:59:49;;;;;;;4.35;3.95;;;;;;;;;;5077158;28;20224;-83
2023/01/27 04:07:46;;;;;;;5.65;5.15;;;;;;;;;;5077383;28;20563;-85
2023/01/27 04:10:14;;;;;;;5.75;4.68;;;;;;;;;;5077296;28;20287;-84
2023/01/27 04:12:40;;;;;;;5.13;4.63;;;;;;;;;;5076688;28;20197;-86
2023/01/27 04:15:10;;;;;;;4.38;3.97;;;;;;;;;;5077242;28;20250;-84
2023/01/27 04:17:40;;;;;;;6.25;5.45;;;;;;;;;;5076895;28;20254;-84
2023/01/27 04:20:10;;;;;;;5.43;4.93;;;;;;;;;;5078500;28;20219;-84
2023/01/27 04:22:38;;;;;;;5.13;4.70;;;;;;;;;;5077573;28;20284;-85
2023/01/27 04:25:07;;;;;;;4.75;4.22;;;;;;;;;;5077428;28;20316;-84
2023/01/27 04:27:35;;;;;;;4.15;3.75;;;;;;;;;;5078053;28;20197;-84
2023/01/27 04:30:03;;;;;;;5.13;4.30;;;;;;;;;;5077527;28;20236;-85
2023/01/27 04:32:32;;;;;;;4.30;3.90;;;;;;;;;;5077008;28;20197;-85
2023/01/27 04:34:59;;;;;;;4.93;3.83;;;;;;;;;;5076705;28;20315;-86
2023/01/27 04:37:27;;;;;;;5.00;3.88;;;;;;;;;;5077405;28;20276;-86
2023/01/27 04:39:54;;;;;;;4.25;3.85;;;;;;;;;;5076472;28;20285;-85
2023/01/27 04:42:22;;;;;;;5.13;4.30;;;;;;;;;;5076168;28;20225;-85
2023/01/27 04:44:49;;;;;;;3.92;3.53;;;;;;;;;;5074988;28;20229;-86
2023/01/27 04:47:17;;;;;;;4.30;3.90;;;;;;;;;;5076795;28;20205;-85
2023/01/27 04:49:46;;;;;;;4.38;3.97;;;;;;;;;;5076380;28;20287;-84
2023/01/27 04:52:13;;;;;;;4.05;3.65;;;;;;;;;;5076653;28;20288;-86
2023/01/27 04:54:41;;;;;;;4.40;4.00;;;;;;;;;;5076525;28;20266;-86
2023/01/27 04:57:09;;;;;;;5.78;4.30;;;;;;;;;;5076177;28;20710;-87
2023/01/27 04:59:36;;;;;;;4.63;4.22;;;;;;;;;;5076586;28;20239;-85
2023/01/27 05:02:04;;;;;;;4.70;4.30;;;;;;;;;;5075858;28;20681;-87
2023/01/27 05:04:31;;;;;;;5.43;4.78;;;;;;;;;;5075890;28;20631;-85
2023/01/27 05:07:01;;;;;;;5.10;4.60;;;;;;;;;;5075349;28;20225;-85
2023/01/27 05:09:28;;;;;;;4.95;4.45;;;;;;;;;;5075400;28;20606;-85
2023/01/27 05:11:56;;;;;;;4.43;3.80;;;;;;;;;;5074842;28;20236;-86
2023/01/27 05:14:24;;;;;;;4.10;3.75;;;;;;;;;;5076550;28;20319;-86
2023/01/27 05:16:52;;;;;;;4.20;3.80;;;;;;;;;;5076364;28;20282;-85
2023/01/27 05:19:19;;;;;;;3.70;3.40;;;;;;;;;;5076886;28;20673;-86
2023/01/27 05:21:47;;;;;;;5.22;4.15;;;;;;;;;;5075969;28;20231;-85
2023/01/27 05:24:16;;;;;;;4.88;4.47;;;;;;;;;;5076526;28;20308;-85
2023/01/27 05:26:43;;;;;;;3.78;3.47;;;;;;;;;;5076110;28;20196;-85
2023/01/27 05:29:11;;;;;;;3.63;3.33;;;;;;;;;;5091079;28;20740;-85
2023/01/27 05:31:39;;;;;;;4.07;3.17;;;;;;;;;;5096015;28;20302;-85
2023/01/27 05:34:06;;;;;;;3.92;3.63;;;;;;;;;;5096102;28;20255;-85
2023/01/27 05:36:34;;;;;;;4.82;4.32;;;;;;;;;;5096581;28;20703;-86
2023/01/27 05:39:01;;;;;;;3.67;3.38;;;;;;;;;;5096178;28;20212;-86
2023/01/27 05:41:31;;;;;;;3.40;3.10;;;;;;;;;;5096800;28;20200;-86
2023/01/27 05:43:58;;;;;;;3.38;2.90;;;;;;;;;;5096695;28;20676;-86
2023/01/27 05:46:29;;;;;;;3.58;3.28;;;;;;;;;;5095688;28;20608;-85
2023/01/27 05:48:58;;;;;;;3.33;3.03;;;;;;;;;;5095025;28;20283;-85
2023/01/27 05:51:29;;;;;;;3.25;2.95;;;;;;;;;;5096286;28;20235;-86
2023/01/27 05:53:56;;;;;;;3.42;3.13;;;;;;;;;;5096780;28;20251;-85
2023/01/27 05:56:25;;;;;;;3.40;3.10;;;;;;;;;;5097210;28;20235;-87
2023/01/27 05:58:56;;;;;;;3.35;3.03;;;;;;;;;;5097088;28;20583;-86
2023/01/27 06:01:28;;;;;;;3.40;3.10;;;;;;;;;;5095661;28;20205;-86
2023/01/27 06:03:56;;;;;;;3.03;2.72;;;;;;;;;;5096958;28;20303;-88
2023/01/27 06:06:26;;;;;;;3.70;2.97;;;;;;;;;;5095789;28;20560;-88
2023/01/27 06:08:53;;;;;;;2.88;2.67;;;;;;;;;;5096160;28;20192;-87
2023/01/27 06:11:23;;;;;;;2.90;2.70;;;;;;;;;;5097009;28;20238;-86
2023/01/27 06:13:51;;;;;;;2.88;2.67;;;;;;;;;;5096948;28;20245;-87
2023/01/27 06:16:21;;;;;;;3.55;3.05;;;;;;;;;;5097289;28;20291;-86
2023/01/27 06:18:49;;;;;;;3.15;2.85;;;;;;;;;;5100782;28;20615;-85
2023/01/27 06:21:19;;;;;;;3.85;3.17;;;;;;;;;;5101845;28;20648;-86
2023/01/27 06:23:46;;;;;;;3.60;3.28;;;;;;;;;;5098986;28;20287;-86
2023/01/27 06:26:16;;;;;;;5.03;4.03;;;;;;;;;;5099579;28;20210;-86
2023/01/27 06:28:44;;;;;;;3.38;3.08;;;;;;;;;;5100201;28;20292;-86
2023/01/27 06:31:14;;;;;;;3.33;3.08;;;;;;;;;;5099735;28;20204;-86
2023/01/27 06:33:43;;;;;;;4.03;3.72;;;;;;;;;;5098725;28;20208;-86
2023/01/27 06:36:13;;;;;;;4.30;3.72;;;;;;;;;;5098989;28;20232;-87
2023/01/27 06:38:41;;;;;;;5.35;4.30;;;;;;;;;;5099640;28;20514;-87
2023/01/27 06:41:09;;;;;;;4.22;3.53;;;;;;;;;;5099914;28;20665;-85
2023/01/27 06:43:36;;;;;;;3.15;2.85;;;;;;;;;;5099546;28;20223;-85
2023/01/27 06:46:04;;;;;;;3.55;3.17;;;;;;;;;;5099223;28;20298;-85
2023/01/27 06:48:32;;;;;;;4.28;3.80;;;;;;;;;;5097632;28;20201;-85
2023/01/27 06:51:01;;;;;;;4.88;4.25;;;;;;;;;;5100068;28;20261;-86
2023/01/27 06:53:30;;;;;;;3.78;3.47;;;;;;;;;;5100596;28;20287;-86
2023/01/27 06:55:58;;;;;;;4.63;3.83;;;;;;;;;;5100360;28;20668;-86
2023/01/27 06:58:26;;;;;;;3.88;3.30;;;;;;;;;;5100034;28;20226;-86
2023/01/27 07:00:54;;;;;;;3.28;2.97;;;;;;;;;;5100494;28;20196;-87
2023/01/27 07:03:22;;;;;;;4.35;3.47;;;;;;;;;;5100425;28;20315;-85
2023/01/27 07:05:49;;;;;;;3.58;3.10;;;;;;;;;;5100216;28;20303;-87
2023/01/27 07:08:18;;;;;;;3.40;3.10;;;;;;;;;;5100651;28;20300;-86
2023/01/27 07:10:46;;;;;;;3.75;3.38;;;;;;;;;;5099329;28;20299;-86
2023/01/27 07:13:14;;;;;;;3.55;3.25;;;;;;;;;;5098313;28;20197;-86
2023/01/27 07:15:42;;;;;;;4.35;3.95;;;;;;;;;;5100457;28;20649;-85
2023/01/27 07:18:12;;;;;;;3.88;3.50;;;;;;;;;;5101237;28;20220;-85
2023/01/27 07:20:40;;;;;;;4.55;4.13;;;;;;;;;;5100835;28;20204;-86
2023/01/27 07:23:09;;;;;;;4.30;3.58;;;;;;;;;;5101385;28;20672;-85
2023/01/27 07:25:38;;;;;;;4.10;3.70;;;;;;;;;;5100641;28;20219;-86
2023/01/27 07:28:06;;;;;;;3.97;3.67;;;;;;;;;;5100903;28;20295;-86
2023/01/27 07:30:34;;;;;;;5.80;4.05;;;;;;;;;;5100251;28;20231;-87
2023/01/27 07:33:06;;;;;;;3.80;3.47;;;;;;;;;;5100405;28;20220;-86
2023/01/27 07:35:33;;;;;;;4.22;3.83;;;;;;;;;;5100344;28;20266;-87
2023/01/27 07:38:01;;;;;;;4.07;3.75;;;;;;;;;;5099593;28;20211;-84
2023/01/27 07:40:28;;;;;;;4.70;3.92;;;;;;;;;;5100439;28;20240;-85
2023/01/27 07:43:00;;;;;;;5.57;5.03;;;;;;;;;;5100766;28;20262;-86
2023/01/27 07:45:28;;;;;;;4.47;3.92;;;;;;;;;;5100922;28;20285;-86
2023/01/27 07:48:01;;;;;;;4.43;4.00;;;;;;;;;;5099702;28;20277;-83
2023/01/27 07:50:28;;;;;;;5.15;4.38;;;;;;;;;;5098377;28;20207;-84
2023/01/27 07:52:58;;;;;;;3.95;3.42;;;;;;;;;;5098412;28;20232;-84
2023/01/27 07:55:25;;;;;;;4.22;3.55;;;;;;;;;;5100629;28;20255;-85
2023/01/27 07:57:54;;;;;;;3.38;3.08;;;;;;;;;;5099925;28;20208;-84
2023/01/27 08:00:24;;;;;;;3.50;3.20;;;;;;;;;;5099748;28;20276;-84
2023/01/27 08:02:52;;;;;;;3.67;3.25;;;;;;;;;;5099552;28;20296;-84
2023/01/27 08:05:20;;;;;;;3.17;2.88;;;;;;;;;;5099703;28;20279;-84
2023/01/27 08:07:47;;;;;;;3.70;3.10;;;;;;;;;;5098788;28;20581;-84
2023/01/27 08:10:16;;;;;;;3.20;2.90;;;;;;;;;;5098633;28;20228;-85
2023/01/27 08:12:44;;;;;;;3.58;3.25;;;;;;;;;;5099296;28;20260;-84
2023/01/27 08:15:12;;;;;;;3.42;3.13;;;;;;;;;;5099751;28;20244;-85
2023/01/27 08:17:41;;;;;;;2.83;2.63;;;;;;;;;;5098821;28;20262;-85
2023/01/27 08:20:11;;;;;;;2.85;2.63;;;;;;;;;;5097973;28;20643;-85
2023/01/27 08:22:38;;;;;;;2.45;2.25;;;;;;;;;;5099000;28;20286;-84
2023/01/27 08:25:07;;;;;;;2.60;2.40;;;;;;;;;;5098097;28;20250;-84
2023/01/27 08:27:35;;;;;;;3.10;2.63;;;;;;;;;;5098528;28;20200;-85
2023/01/27 08:30:02;;;;;;;2.60;2.38;;;;;;;;;;5097968;28;20647;-85
2023/01/27 08:32:30;;;;;;;2.30;2.05;;;;;;;;;;5097445;28;20232;-86
2023/01/27 08:34:59;;;;;;;3.38;2.65;;;;;;;;;;5097176;28;20675;-87
2023/01/27 08:37:26;;;;;;;2.38;2.17;;;;;;;;;;5098041;28;20235;-87
2023/01/27 08:39:54;;;;;;;2.33;2.15;;;;;;;;;;5097411;28;20425;-86
2023/01/27 08:42:21;;;;;;;2.38;2.17;;;;;;;;;;5097712;28;20287;-87
2023/01/27 08:44:49;;;;;;;2.20;2.10;;;;;;;;;;5099939;28;20692;-84
2023/01/27 08:47:16;;;;;;;1.90;1.80;;;;;;;;;;5096499;28;20629;-86
2023/01/27 08:49:44;;;;;;;2.00;1.90;;;;;;;;;;5096987;28;20222;-85
2023/01/27 08:52:13;;;;;;;2.40;2.20;;;;;;;;;;5097218;28;20199;-87
2023/01/27 08:54:41;;;;;;;2.13;2.03;;;;;;;;;;5098077;28;20224;-86
2023/01/27 08:57:08;;;;;;;4.57;2.83;;;;;;;;;;5097713;28;20287;-86
2023/01/27 08:59:36;;;;;;;3.30;3.00;;;;;;;;;;5098019;28;20212;-85
2023/01/27 09:02:03;;;;;;;3.58;3.28;;;;;;;;;;5098646;28;20216;-84
2023/01/27 09:04:31;;;;;;;3.50;3.20;;;;;;;;;;5097831;28;20260;-84
2023/01/27 09:06:58;;;;;;;2.80;2.60;;;;;;;;;;5097977;28;20216;-84
2023/01/27 09:09:27;;;;;;;2.60;2.40;;;;;;;;;;5097947;28;20200;-85
2023/01/27 09:11:55;;;;;;;2.80;2.60;;;;;;;;;;5098359;28;20257;-86
2023/01/27 09:14:22;;;;;;;4.57;3.00;;;;;;;;;;5098018;28;20216;-85
2023/01/27 09:16:50;;;;;;;2.28;2.17;;;;;;;;;;5097539;28;20242;-86
2023/01/27 09:19:17;;;;;;;2.35;2.15;;;;;;;;;;5098039;28;20676;-85
2023/01/27 09:21:45;;;;;;;2.72;2.53;;;;;;;;;;5097113;28;20676;-86
2023/01/27 09:24:16;;;;;;;2.33;2.15;;;;;;;;;;5097184;28;20272;-86
2023/01/27 09:26:45;;;;;;;2.40;2.22;;;;;;;;;;5097281;28;20631;-85
2023/01/27 09:29:12;;;;;;;2.63;2.42;;;;;;;;;;5097351;28;20657;-85
2023/01/27 09:31:40;;;;;;;2.90;2.70;;;;;;;;;;5096258;28;20207;-85
2023/01/27 09:34:08;;;;;;;2.85;2.55;;;;;;;;;;5095227;28;20249;-84
2023/01/27 09:36:40;;;;;;;2.80;2.60;;;;;;;;;;5098162;28;20658;-84
2023/01/27 09:39:09;;;;;;;2.10;2.00;;;;;;;;;;5097164;28;20643;-85
2023/01/27 09:42:09;;;;;;;1.85;1.75;;;;;;;;;;5095801;28;20200;-84
2023/01/27 09:45:00;;;;;;;1.65;1.55;;;;;;;;;;5073140;28;20247;-85
2023/01/27 09:47:48;;;;;;;3.30;3.00;;;;;;;;;;5097004;28;20708;-85
2023/01/27 09:50:31;;;;;;;3.67;3.35;;;;;;;;;;5097623;28;20648;-86
2023/01/27 09:53:23;;;;;;;1.90;1.80;;;;;;;;;;5101280;28;20223;-85
2023/01/27 09:55:56;;;;;;;2.25;1.85;;;;;;;;;;5103814;28;20243;-86
2023/01/27 09:58:40;;;;;;;2.13;2.03;;;;;;;;;;5102667;28;20717;-84
2023/01/27 10:01:17;;;;;;;1.90;1.80;;;;;;;;;;5104545;28;20248;-86
2023/01/27 10:04:13;;;;;;;1.30;1.30;;;;;;;;;;5103813;28;20196;-86
2023/01/27 10:07:12;;;;;;;2.08;1.90;;;;;;;;;;5103149;28;20264;-85
2023/01/27 10:10:13;;;;;;;1.65;1.55;;;;;;;;;;5101360;28;20291;-86
2023/01/27 10:12:59;;;;;;;1.58;1.48;;;;;;;;;;5102444;28;20226;-84
2023/01/27 10:15:42;;;;;;;1.85;1.73;;;;;;;;;;5102956;28;20250;-85
2023/01/27 10:18:28;;;;;;;1.70;1.60;;;;;;;;;;5104427;28;20184;-84
2023/01/27 10:21:04;;;;;;;1.85;1.75;;;;;;;;;;5102731;28;20211;-85
2023/01/27 10:23:42;;;;;;;1.63;1.52;;;;;;;;;;5103342;28;20226;-85
2023/01/27 10:26:19;;;;;;;1.65;1.55;;;;;;;;;;5102991;28;20307;-85
2023/01/27 10:28:51;;;;;;;1.42;1.33;;;;;;;;;;5102803;28;20224;-86
2023/01/27 10:31:26;;;;;;;1.52;1.42;;;;;;;;;;5102559;28;20200;-85
2023/01/27 10:33:57;;;;;;;1.60;1.50;;;;;;;;;;5102889;28;20237;-85
2023/01/27 10:36:28;;;;;;;1.60;1.50;;;;;;;;;;5103211;28;20219;-84
2023/01/27 10:39:10;;;;;;;1.50;1.40;;;;;;;;;;5102436;28;20193;-85
2023/01/27 10:41:48;;;;;;;1.23;1.13;;;;;;;;;;5102924;28;20223;-84
2023/01/27 10:44:38;;;;;;;0.90;0.90;;;;;;;;;;5102443;28;20247;-86
2023/01/27 10:47:15;;;;;;;1.20;1.20;;;;;;;;;;5103023;28;20645;-85
2023/01/27 10:49:48;;;;;;;1.00;1.00;;;;;;;;;;5101990;28;20660;-85
2023/01/27 10:52:18;;;;;;;0.75;0.75;;;;;;;;;;5103004;28;20204;-85
2023/01/27 10:54:52;;;;;;;0.98;0.98;;;;;;;;;;5102215;28;20223;-85
2023/01/27 10:57:24;;;;;;;3.72;2.88;;;;;;;;;;5101978;28;20771;-85
2023/01/27 10:59:57;;;;;;;8.05;6.00;;;;;;;;;;5082053;28;20190;-86
2023/01/27 11:02:34;;;;;;;2.83;2.20;;;;;;;;;;5082043;28;20288;-86
2023/01/27 11:05:05;;;;;;;1.30;1.20;;;;;;;;;;5082667;28;20236;-86
2023/01/27 11:07:33;;;;;;;1.20;1.20;;;;;;;;;;5082072;28;20189;-86
2023/01/27 11:10:06;;;;;;;1.23;1.13;;;;;;;;;;5081599;28;20208;-85
2023/01/27 11:12:36;;;;;;;0.90;0.90;;;;;;;;;;5081923;28;20662;-87
2023/01/27 11:15:17;;;;;;;1.48;1.38;;;;;;;;;;5080616;28;20224;-85
2023/01/27 11:17:49;;;;;;;1.55;1.52;;;;;;;;;;5079583;28;20205;-85
2023/01/27 11:20:28;;;;;;;1.02;1.00;;;;;;;;;;5078699;28;20540;-86
2023/01/27 11:23:03;;;;;;;0.80;0.80;;;;;;;;;;5079442;28;20209;-87
2023/01/27 11:25:43;;;;;;;1.67;0.90;;;;;;;;;;5078817;28;20518;-86
2023/01/27 11:28:29;;;;;;;0.90;0.90;;;;;;;;;;5078866;28;20225;-85
2023/01/27 11:31:07;;;;;;;1.00;1.00;;;;;;;;;;5078647;28;20569;-86
2023/01/27 11:33:50;;;;;;;2.25;2.15;;;;;;;;;;5078987;28;20205;-85
2023/01/27 11:36:18;;;;;;;2.30;2.20;;;;;;;;;;5079305;28;20200;-86
2023/01/27 11:38:46;;;;;;;1.23;1.23;;;;;;;;;;5078051;28;20283;-86
2023/01/27 11:41:13;;;;;;;1.00;1.00;;;;;;;;;;5078631;28;20265;-85
2023/01/27 11:43:41;;;;;;;0.75;0.75;;;;;;;;;;5079388;28;20236;-87
2023/01/27 11:46:13;;;;;;;0.90;0.90;;;;;;;;;;5079673;28;20267;-87
2023/01/27 11:48:44;;;;;;;0.90;0.90;;;;;;;;;;5078668;28;20211;-86
2023/01/27 11:51:20;;;;;;;0.95;0.95;;;;;;;;;;5076940;28;20225;-85
2023/01/27 11:53:52;;;;;;;0.98;0.98;;;;;;;;;;5078968;28;20221;-85
2023/01/27 11:56:20;;;;;;;2.03;1.92;;;;;;;;;;5078663;28;20205;-85
2023/01/27 11:58:56;;;;;;;1.33;1.27;;;;;;;;;;5090532;28;20231;-84
2023/01/27 12:01:29;;;;;;;1.50;1.40;;;;;;;;;;5100294;28;20216;-86
2023/01/27 12:04:05;;;;;;;1.35;1.25;;;;;;;;;;5098981;28;20654;-84
2023/01/27 12:06:38;;;;;;;0.98;0.98;;;;;;;;;;5098139;28;20226;-85
2023/01/27 12:09:05;;;;;;;1.00;1.00;;;;;;;;;;5098613;28;20208;-86
2023/01/27 12:11:33;;;;;;;0.82;0.82;;;;;;;;;;5098956;28;20231;-86
2023/01/27 12:14:03;;;;;;;2.00;1.13;;;;;;;;;;5098476;28;20255;-86
2023/01/27 12:16:44;;;;;;;1.00;1.00;;;;;;;;;;5099037;28;20637;-85
2023/01/27 12:19:24;;;;;;;2.15;1.90;;;;;;;;;;5097261;28;20577;-86
2023/01/27 12:21:56;;;;;;;1.98;1.50;;;;;;;;;;5097664;28;20382;-86
2023/01/27 12:24:28;;;;;;;0.80;0.80;;;;;;;;;;5098088;28;20262;-86
2023/01/27 12:26:57;;;;;;;0.90;0.90;;;;;;;;;;5098800;28;20289;-86
2023/01/27 12:29:29;;;;;;;0.80;0.80;;;;;;;;;;5098748;28;20211;-85
2023/01/27 12:31:59;;;;;;;0.70;0.70;;;;;;;;;;5099034;28;20242;-85
2023/01/27 12:34:31;;;;;;;0.85;0.85;;;;;;;;;;5099204;28;20228;-85
2023/01/27 12:36:59;;;;;;;1.70;1.60;;;;;;;;;;5099195;28;20230;-85
2023/01/27 12:39:33;;;;;;;1.60;1.50;;;;;;;;;;5098244;28;20196;-85
2023/01/27 12:42:00;;;;;;;1.20;1.20;;;;;;;;;;5099020;28;20703;-85
2023/01/27 12:44:42;;;;;;;0.90;0.90;;;;;;;;;;5099861;28;20765;-85
2023/01/27 12:47:24;;;;;;;0.90;0.90;;;;;;;;;;5098756;28;20226;-86
2023/01/27 12:49:54;;;;;;;0.80;0.80;;;;;;;;;;5097975;28;20597;-85
2023/01/27 12:52:22;;;;;;;2.47;1.95;;;;;;;;;;5097038;28;20200;-86
2023/01/27 12:54:52;;;;;;;1.10;1.10;;;;;;;;;;5098082;28;20283;-85
2023/01/27 12:57:21;;;;;;;1.02;1.00;;;;;;;;;;5098009;28;20219;-85
2023/01/27 12:59:51;;;;;;;1.40;1.30;;;;;;;;;;5098181;28;20286;-85
2023/01/27 13:02:21;;;;;;;1.40;1.30;;;;;;;;;;5098936;28;20226;-85
2023/01/27 13:04:55;;;;;;;1.50;1.40;;;;;;;;;;5098236;28;20224;-84
2023/01/27 13:07:25;;;;;;;1.30;1.30;;;;;;;;;;5097550;28;20240;-85
2023/01/27 13:09:56;;;;;;;1.30;1.30;;;;;;;;;;5097800;28;20216;-84
2023/01/27 13:12:26;;;;;;;1.40;1.30;;;;;;;;;;5097972;28;20269;-84
2023/01/27 13:14:56;;;;;;;2.40;2.20;;;;;;;;;;5097358;28;20224;-85
2023/01/27 13:17:37;;;;;;;1.30;1.20;;;;;;;;;;5098234;28;20279;-85
2023/01/27 13:20:16;;;;;;;1.10;1.10;;;;;;;;;;5096732;28;20296;-84
2023/01/27 13:22:47;;;;;;;1.13;1.13;;;;;;;;;;5097292;28;20208;-84
2023/01/27 13:25:20;;;;;;;1.30;1.25;;;;;;;;;;5096296;28;20647;-86
2023/01/27 13:27:49;;;;;;;1.65;1.30;;;;;;;;;;5095974;28;20298;-84
2023/01/27 13:30:24;;;;;;;1.50;1.40;;;;;;;;;;5094055;28;20740;-85
2023/01/27 13:32:53;;;;;;;1.58;1.48;;;;;;;;;;5096584;28;20238;-85
2023/01/27 13:35:26;;;;;;;1.40;1.30;;;;;;;;;;5096509;28;20251;-85
2023/01/27 13:38:03;;;;;;;1.73;1.63;;;;;;;;;;5096859;28;20633;-86
2023/01/27 13:40:34;;;;;;;1.23;1.23;;;;;;;;;;5097039;28;20756;-85
2023/01/27 13:43:08;;;;;;;0.90;0.90;;;;;;;;;;5095906;28;20220;-87
2023/01/27 13:45:41;;;;;;;1.80;1.70;;;;;;;;;;5097241;28;20255;-86
2023/01/27 13:48:16;;;;;;;1.55;1.45;;;;;;;;;;5096500;28;20701;-86
2023/01/27 13:50:47;;;;;;;1.80;1.70;;;;;;;;;;5096734;28;20287;-85
2023/01/27 13:53:18;;;;;;;1.77;1.67;;;;;;;;;;5096077;28;20216;-86
2023/01/27 13:56:14;;;;;;;2.00;1.90;;;;;;;;;;5096354;28;20242;-86
2023/01/27 13:58:54;;;;;;;2.13;1.95;;;;;;;;;;5091865;28;20287;-85
2023/01/27 14:01:28;;;;;;;2.88;2.67;;;;;;;;;;5096724;28;20226;-85
2023/01/27 14:04:28;;;;;;;2.58;2.38;;;;;;;;;;5096992;28;20258;-86
2023/01/27 14:07:07;;;;;;;2.35;2.15;;;;;;;;;;5096184;28;20303;-86
2023/01/27 14:09:48;;;;;;;2.08;1.98;;;;;;;;;;5095483;28;20204;-84
2023/01/27 14:12:26;;;;;;;2.15;2.03;;;;;;;;;;5097182;28;20283;-87
2023/01/27 14:15:03;;;;;;;2.30;2.10;;;;;;;;;;5096138;28;20269;-86
2023/01/27 14:17:39;;;;;;;2.75;1.98;;;;;;;;;;5094406;28;20204;-85
2023/01/27 14:21:00;;;;;;;3.95;2.97;;;;;;;;;;5094885;28;20275;-85
2023/01/27 14:23:41;;;;;;;2.60;2.40;;;;;;;;;;5084350;28;20283;-86
2023/01/27 14:26:40;;;;;;;2.63;2.20;;;;;;;;;;5096110;28;20197;-86
2023/01/27 14:29:21;;;;;;;2.30;2.15;;;;;;;;;;5082256;28;20201;-86
2023/01/27 14:31:53;;;;;;;2.50;2.33;;;;;;;;;;5076198;28;20704;-86
2023/01/27 14:34:42;;;;;;;3.25;2.95;;;;;;;;;;5076839;28;20253;-86
2023/01/27 14:37:19;;;;;;;2.20;2.10;;;;;;;;;;5077885;28;20235;-86
2023/01/27 14:40:00;;;;;;;2.92;2.63;;;;;;;;;;5079981;28;20209;-85
2023/01/27 14:42:35;;;;;;;2.40;2.20;;;;;;;;;;5081191;28;20186;-85
2023/01/27 14:45:06;;;;;;;2.03;1.83;;;;;;;;;;5080293;28;20311;-86
2023/01/27 14:47:42;;;;;;;1.73;1.63;;;;;;;;;;5081549;28;20216;-84
2023/01/27 14:50:23;;;;;;;2.10;2.00;;;;;;;;;;5080581;28;20264;-84
2023/01/27 14:53:01;;;;;;;1.92;1.83;;;;;;;;;;5079958;28;20212;-85
2023/01/27 14:55:48;;;;;;;4.13;2.10;;;;;;;;;;5080892;28;20705;-85
2023/01/27 14:58:46;;;;;;;1.60;1.50;;;;;;;;;;5086998;28;20236;-85
2023/01/27 15:01:32;;;;;;;1.63;1.52;;;;;;;;;;5093293;28;20287;-86
2023/01/27 15:04:34;;;;;;;1.50;1.42;;;;;;;;;;5099839;28;20244;-86
2023/01/27 15:07:10;;;;;;;2.00;1.90;;;;;;;;;;5100140;28;20844;-86
2023/01/27 15:10:04;;;;;;;1.65;1.55;;;;;;;;;;5099429;28;20184;-85
2023/01/27 15:13:10;;;;;;;1.13;1.10;;;;;;;;;;5098818;28;20555;-86
2023/01/27 15:16:14;;;;;;;1.50;1.40;;;;;;;;;;5096919;28;20671;-86
2023/01/27 15:18:59;;;;;;;1.40;1.30;;;;;;;;;;5097256;28;20239;-84
2023/01/27 15:21:42;;;;;;;1.08;1.08;;;;;;;;;;5098395;28;20292;-86
2023/01/27 15:24:35;;;;;;;1.27;1.23;;;;;;;;;;5097659;28;20283;-85
2023/01/27 15:27:03;;;;;;;1.60;1.50;;;;;;;;;;5097197;28;20204;-86
2023/01/27 15:29:32;;;;;;;1.13;1.13;;;;;;;;;;5096788;28;20208;-84
2023/01/27 15:32:19;;;;;;;1.35;1.30;;;;;;;;;;5097138;28;20222;-85
2023/01/27 15:34:53;;;;;;;2.00;1.90;;;;;;;;;;5097682;28;20232;-86
2023/01/27 15:37:23;;;;;;;3.60;3.30;;;;;;;;;;5097125;28;20278;-85
2023/01/27 15:40:02;;;;;;;4.50;4.10;;;;;;;;;;5096472;28;20238;-85
2023/01/27 15:42:50;;;;;;;5.30;4.80;;;;;;;;;;5097505;28;20231;-87